sensor_id;sensor_type;location;lat;lon;timestamp;pressure;altitude;pressure_sealevel;temperature;humidity
141;BME280;65;48.778;9.160;2024-01-30T00:02:17;99878.84;;;2.45;100.00
141;BME280;65;48.778;9.160;2024-01-30T00:05:03;99875.38;;;2.46;100.00
141;BME280;65;48.778;9.160;2024-01-30T00:07:50;99879.72;;;2.42;100.00
141;BME280;65;48.778;9.160;2024-01-30T00:10:36;99879.75;;;2.41;100.00
141;BME280;65;48.778;9.160;2024-01-30T00:13:21;99886.69;;;2.39;100.00
141;BME280;65;48.778;9.160;2024-01-30T00:16:20;99879.75;;;2.33;100.00
141;BME280;65;48.778;9.160;2024-01-30T00:19:05;99884.09;;;2.34;100.00
141;BME280;65;48.778;9.160;2024-01-30T00:21:51;99878.00;;;2.31;100.00
141;BME280;65;48.778;9.160;2024-01-30T00:24:37;99884.97;;;2.30;100.00
141;BME280;65;48.778;9.160;2024-01-30T00:27:22;99877.16;;;2.32;100.00
141;BME280;65;48.778;9.160;2024-01-30T00:30:09;99877.16;;;2.33;100.00
141;BME280;65;48.778;9.160;2024-01-30T00:32:54;99876.28;;;2.33;100.00
141;BME280;65;48.778;9.160;2024-01-30T00:35:40;99881.50;;;2.34;100.00
141;BME280;65;48.778;9.160;2024-01-30T00:38:26;99872.81;;;2.34;100.00
141;BME280;65;48.778;9.160;2024-01-30T00:41:12;99876.25;;;2.45;100.00
141;BME280;65;48.778;9.160;2024-01-30T00:43:57;99873.63;;;2.46;100.00
141;BME280;65;48.778;9.160;2024-01-30T00:46:43;99876.25;;;2.45;100.00
141;BME280;65;48.778;9.160;2024-01-30T00:49:29;99878.84;;;2.48;100.00
141;BME280;65;48.778;9.160;2024-01-30T00:52:15;99881.44;;;2.52;100.00
141;BME280;65;48.778;9.160;2024-01-30T00:55:01;99878.81;;;2.57;100.00
141;BME280;65;48.778;9.160;2024-01-30T00:57:48;99878.81;;;2.57;100.00
141;BME280;65;48.778;9.160;2024-01-30T01:00:33;99879.66;;;2.59;100.00
141;BME280;65;48.778;9.160;2024-01-30T01:03:19;99882.28;;;2.61;100.00
141;BME280;65;48.778;9.160;2024-01-30T01:06:05;99883.13;;;2.61;100.00
141;BME280;65;48.778;9.160;2024-01-30T01:08:50;99882.28;;;2.56;100.00
141;BME280;65;48.778;9.160;2024-01-30T01:11:36;99882.31;;;2.53;100.00
141;BME280;65;48.778;9.160;2024-01-30T01:14:23;99880.56;;;2.49;100.00
141;BME280;65;48.778;9.160;2024-01-30T01:17:09;99884.94;;;2.45;100.00
141;BME280;65;48.778;9.160;2024-01-30T01:19:54;99889.28;;;2.45;100.00
141;BME280;65;48.778;9.160;2024-01-30T01:22:40;99884.94;;;2.41;100.00
141;BME280;65;48.778;9.160;2024-01-30T01:25:27;99885.84;;;2.37;100.00
141;BME280;65;48.778;9.160;2024-01-30T01:28:12;99885.84;;;2.34;100.00
141;BME280;65;48.778;9.160;2024-01-30T01:30:58;99885.81;;;2.31;100.00
141;BME280;65;48.778;9.160;2024-01-30T01:33:50;99879.75;;;2.30;100.00
141;BME280;65;48.778;9.160;2024-01-30T01:36:36;99883.22;;;2.29;100.00
141;BME280;65;48.778;9.160;2024-01-30T01:39:22;99881.50;;;2.22;100.00
141;BME280;65;48.778;9.160;2024-01-30T01:42:09;99877.16;;;2.22;100.00
141;BME280;65;48.778;9.160;2024-01-30T01:44:55;99881.50;;;2.20;100.00
141;BME280;65;48.778;9.160;2024-01-30T01:47:41;99885.00;;;2.18;100.00
141;BME280;65;48.778;9.160;2024-01-30T01:50:27;99885.84;;;2.18;100.00
141;BME280;65;48.778;9.160;2024-01-30T01:53:13;99879.78;;;2.13;100.00
141;BME280;65;48.778;9.160;2024-01-30T01:56:01;99877.19;;;2.07;100.00
141;BME280;65;48.778;9.160;2024-01-30T01:58:47;99875.47;;;2.00;100.00
141;BME280;65;48.778;9.160;2024-01-30T02:01:38;99872.00;;;1.97;100.00
141;BME280;65;48.778;9.160;2024-01-30T02:04:26;99866.81;;;1.90;100.00
141;BME280;65;48.778;9.160;2024-01-30T02:07:11;99868.53;;;1.92;100.00
141;BME280;65;48.778;9.160;2024-01-30T02:09:57;99870.28;;;1.89;100.00
141;BME280;65;48.778;9.160;2024-01-30T02:12:43;99875.47;;;1.94;100.00
141;BME280;65;48.778;9.160;2024-01-30T02:15:29;99869.41;;;1.95;100.00
141;BME280;65;48.778;9.160;2024-01-30T02:18:14;99871.16;;;1.92;100.00
141;BME280;65;48.778;9.160;2024-01-30T02:21:04;99872.88;;;1.88;100.00
141;BME280;65;48.778;9.160;2024-01-30T02:23:50;99885.91;;;1.96;100.00
141;BME280;65;48.778;9.160;2024-01-30T02:26:37;99883.31;;;1.96;100.00
141;BME280;65;48.778;9.160;2024-01-30T02:29:23;99887.66;;;1.94;100.00
141;BME280;65;48.778;9.160;2024-01-30T02:32:09;99891.13;;;1.88;100.00
141;BME280;65;48.778;9.160;2024-01-30T02:34:54;99894.63;;;1.84;100.00
141;BME280;65;48.778;9.160;2024-01-30T02:37:40;99888.53;;;1.86;100.00
141;BME280;65;48.778;9.160;2024-01-30T02:40:26;99885.91;;;1.85;100.00
141;BME280;65;48.778;9.160;2024-01-30T02:43:11;99880.72;;;1.82;100.00
141;BME280;65;48.778;9.160;2024-01-30T02:46:25;99878.09;;;1.82;100.00
141;BME280;65;48.778;9.160;2024-01-30T02:49:11;99878.13;;;1.74;100.00
141;BME280;65;48.778;9.160;2024-01-30T02:51:56;99876.34;;;1.70;100.00
141;BME280;65;48.778;9.160;2024-01-30T02:54:42;99879.81;;;1.71;100.00
141;BME280;65;48.778;9.160;2024-01-30T02:57:29;99876.34;;;1.67;100.00
141;BME280;65;48.778;9.160;2024-01-30T03:00:15;99872.00;;;1.65;100.00
141;BME280;65;48.778;9.160;2024-01-30T03:03:00;99870.28;;;1.64;100.00
141;BME280;65;48.778;9.160;2024-01-30T03:05:47;99876.34;;;1.66;100.00
141;BME280;65;48.778;9.160;2024-01-30T03:08:33;99881.56;;;1.64;100.00
141;BME280;65;48.778;9.160;2024-01-30T03:11:20;99870.28;;;1.59;100.00
141;BME280;65;48.778;9.160;2024-01-30T03:14:06;99870.28;;;1.57;100.00
141;BME280;65;48.778;9.160;2024-01-30T03:16:51;99875.50;;;1.56;100.00
141;BME280;65;48.778;9.160;2024-01-30T03:19:37;99875.47;;;1.64;100.00
141;BME280;65;48.778;9.160;2024-01-30T03:22:23;99872.00;;;1.66;100.00
141;BME280;65;48.778;9.160;2024-01-30T03:25:09;99874.59;;;1.71;100.00
141;BME280;65;48.778;9.160;2024-01-30T03:27:55;99871.13;;;1.67;100.00
141;BME280;65;48.778;9.160;2024-01-30T03:30:40;99882.47;;;1.74;100.00
141;BME280;65;48.778;9.160;2024-01-30T03:33:26;99875.47;;;1.73;100.00
141;BME280;65;48.778;9.160;2024-01-30T03:36:15;99883.28;;;1.71;100.00
141;BME280;65;48.778;9.160;2024-01-30T03:39:01;99875.47;;;1.68;100.00
141;BME280;65;48.778;9.160;2024-01-30T03:41:47;99873.75;;;1.67;100.00
141;BME280;65;48.778;9.160;2024-01-30T03:44:33;99873.75;;;1.63;100.00
141;BME280;65;48.778;9.160;2024-01-30T03:47:19;99878.97;;;1.66;100.00
141;BME280;65;48.778;9.160;2024-01-30T03:50:05;99874.63;;;1.60;100.00
141;BME280;65;48.778;9.160;2024-01-30T03:52:51;99881.56;;;1.55;100.00
141;BME280;65;48.778;9.160;2024-01-30T03:55:37;99885.91;;;1.51;100.00
141;BME280;65;48.778;9.160;2024-01-30T03:58:23;99875.50;;;1.45;100.00
141;BME280;65;48.778;9.160;2024-01-30T04:01:13;99877.22;;;1.42;100.00
141;BME280;65;48.778;9.160;2024-01-30T04:03:59;99878.09;;;1.42;100.00
141;BME280;65;48.778;9.160;2024-01-30T04:06:45;99885.03;;;1.42;100.00
141;BME280;65;48.778;9.160;2024-01-30T04:09:31;99883.31;;;1.42;100.00
141;BME280;65;48.778;9.160;2024-01-30T04:12:18;99889.38;;;1.35;100.00
141;BME280;65;48.778;9.160;2024-01-30T04:15:04;99887.63;;;1.34;100.00
141;BME280;65;48.778;9.160;2024-01-30T04:17:49;99892.84;;;1.30;100.00
141;BME280;65;48.778;9.160;2024-01-30T04:20:35;99886.75;;;1.24;100.00
141;BME280;65;48.778;9.160;2024-01-30T04:23:21;99884.16;;;1.21;100.00
141;BME280;65;48.778;9.160;2024-01-30T04:26:07;99883.28;;;1.19;100.00
141;BME280;65;48.778;9.160;2024-01-30T04:28:52;99881.56;;;1.23;100.00
141;BME280;65;48.778;9.160;2024-01-30T04:31:38;99868.53;;;1.27;100.00
141;BME280;65;48.778;9.160;2024-01-30T04:34:24;99875.47;;;1.32;100.00
141;BME280;65;48.778;9.160;2024-01-30T04:37:10;99875.47;;;1.32;100.00
141;BME280;65;48.778;9.160;2024-01-30T04:39:56;99868.53;;;1.29;100.00
141;BME280;65;48.778;9.160;2024-01-30T04:42:42;99867.66;;;1.27;100.00
141;BME280;65;48.778;9.160;2024-01-30T04:45:28;99877.22;;;1.22;100.00
141;BME280;65;48.778;9.160;2024-01-30T04:48:13;99874.59;;;1.25;100.00
141;BME280;65;48.778;9.160;2024-01-30T04:50:59;99878.09;;;1.30;100.00
141;BME280;65;48.778;9.160;2024-01-30T04:53:48;99880.69;;;1.27;100.00
141;BME280;65;48.778;9.160;2024-01-30T04:56:34;99875.47;;;1.19;100.00
141;BME280;65;48.778;9.160;2024-01-30T04:59:21;99881.53;;;1.17;100.00
141;BME280;65;48.778;9.160;2024-01-30T05:02:06;99886.75;;;1.17;100.00
141;BME280;65;48.778;9.160;2024-01-30T05:04:52;99887.63;;;1.19;100.00
141;BME280;65;48.778;9.160;2024-01-30T05:07:41;99894.56;;;1.17;100.00
141;BME280;65;48.778;9.160;2024-01-30T05:10:26;99893.69;;;1.18;100.00
141;BME280;65;48.778;9.160;2024-01-30T05:13:14;99893.69;;;1.16;100.00
141;BME280;65;48.778;9.160;2024-01-30T05:16:02;99893.66;;;1.13;100.00
141;BME280;65;48.778;9.160;2024-01-30T05:18:48;99892.78;;;1.13;100.00
141;BME280;65;48.778;9.160;2024-01-30T05:21:34;99891.91;;;1.08;100.00
141;BME280;65;48.778;9.160;2024-01-30T05:24:20;99889.31;;;1.09;100.00
141;BME280;65;48.778;9.160;2024-01-30T05:27:06;99894.50;;;1.05;100.00
141;BME280;65;48.778;9.160;2024-01-30T05:29:51;99891.03;;;1.06;100.00
141;BME280;65;48.778;9.160;2024-01-30T05:32:37;99889.31;;;1.05;100.00
141;BME280;65;48.778;9.160;2024-01-30T05:35:23;99892.78;;;1.07;100.00
141;BME280;65;48.778;9.160;2024-01-30T05:38:08;99897.16;;;1.18;100.00
141;BME280;65;48.778;9.160;2024-01-30T05:40:54;99903.25;;;1.19;100.00
141;BME280;65;48.778;9.160;2024-01-30T05:43:43;99904.13;;;1.19;100.00
141;BME280;65;48.778;9.160;2024-01-30T05:46:29;99909.31;;;1.24;100.00
141;BME280;65;48.778;9.160;2024-01-30T05:49:15;99905.00;;;1.24;100.00
141;BME280;65;48.778;9.160;2024-01-30T05:52:03;99905.00;;;1.23;100.00
141;BME280;65;48.778;9.160;2024-01-30T05:54:49;99906.72;;;1.24;100.00
141;BME280;65;48.778;9.160;2024-01-30T05:57:35;99911.94;;;1.21;100.00
141;BME280;65;48.778;9.160;2024-01-30T06:00:20;99911.94;;;1.22;100.00
141;BME280;65;48.778;9.160;2024-01-30T06:03:07;99917.13;;;1.24;100.00
141;BME280;65;48.778;9.160;2024-01-30T06:05:53;99912.78;;;1.20;100.00
141;BME280;65;48.778;9.160;2024-01-30T06:08:38;99910.19;;;1.17;100.00
141;BME280;65;48.778;9.160;2024-01-30T06:11:24;99914.47;;;1.15;100.00
141;BME280;65;48.778;9.160;2024-01-30T06:14:10;99905.81;;;1.14;100.00
141;BME280;65;48.778;9.160;2024-01-30T06:16:56;99901.47;;;1.12;100.00
141;BME280;65;48.778;9.160;2024-01-30T06:19:41;99901.47;;;1.12;100.00
141;BME280;65;48.778;9.160;2024-01-30T06:22:27;99908.41;;;1.13;100.00
141;BME280;65;48.778;9.160;2024-01-30T06:25:13;99913.59;;;1.10;100.00
141;BME280;65;48.778;9.160;2024-01-30T06:27:59;99910.13;;;1.08;100.00
141;BME280;65;48.778;9.160;2024-01-30T06:30:44;99915.34;;;1.11;100.00
141;BME280;65;48.778;9.160;2024-01-30T06:33:30;99911.88;;;1.09;100.00
141;BME280;65;48.778;9.160;2024-01-30T06:36:16;99913.63;;;1.11;100.00
141;BME280;65;48.778;9.160;2024-01-30T06:39:02;99918.00;;;1.18;100.00
141;BME280;65;48.778;9.160;2024-01-30T06:41:48;99909.31;;;1.18;100.00
141;BME280;65;48.778;9.160;2024-01-30T06:44:34;99916.28;;;1.22;100.00
141;BME280;65;48.778;9.160;2024-01-30T06:47:20;99911.06;;;1.22;100.00
141;BME280;65;48.778;9.160;2024-01-30T06:50:06;99911.94;;;1.22;100.00
141;BME280;65;48.778;9.160;2024-01-30T06:52:52;99919.75;;;1.22;100.00
141;BME280;65;48.778;9.160;2024-01-30T06:55:38;99915.41;;;1.26;100.00
141;BME280;65;48.778;9.160;2024-01-30T06:58:24;99911.94;;;1.25;100.00
141;BME280;65;48.778;9.160;2024-01-30T07:01:09;99912.81;;;1.29;100.00
141;BME280;65;48.778;9.160;2024-01-30T07:03:56;99922.34;;;1.30;100.00
141;BME280;65;48.778;9.160;2024-01-30T07:06:42;99918.88;;;1.30;100.00
141;BME280;65;48.778;9.160;2024-01-30T07:09:28;99921.50;;;1.36;100.00
141;BME280;65;48.778;9.160;2024-01-30T07:12:14;99923.25;;;1.40;100.00
141;BME280;65;48.778;9.160;2024-01-30T07:15:00;99924.97;;;1.44;100.00
141;BME280;65;48.778;9.160;2024-01-30T07:17:46;99930.19;;;1.47;100.00
141;BME280;65;48.778;9.160;2024-01-30T07:20:32;99927.59;;;1.50;100.00
141;BME280;65;48.778;9.160;2024-01-30T07:23:18;99926.72;;;1.63;100.00
141;BME280;65;48.778;9.160;2024-01-30T07:26:04;99923.25;;;1.64;100.00
141;BME280;65;48.778;9.160;2024-01-30T07:28:50;99920.66;;;1.72;100.00
141;BME280;65;48.778;9.160;2024-01-30T07:31:36;99919.81;;;1.79;100.00
141;BME280;65;48.778;9.160;2024-01-30T07:34:22;99919.81;;;1.83;100.00
141;BME280;65;48.778;9.160;2024-01-30T07:37:07;99922.41;;;1.91;100.00
141;BME280;65;48.778;9.160;2024-01-30T07:39:58;99920.66;;;2.04;100.00
141;BME280;65;48.778;9.160;2024-01-30T07:42:44;99918.03;;;2.11;100.00
141;BME280;65;48.778;9.160;2024-01-30T07:45:29;99917.16;;;2.21;100.00
141;BME280;65;48.778;9.160;2024-01-30T07:48:18;99930.19;;;2.32;100.00
141;BME280;65;48.778;9.160;2024-01-30T07:51:04;99921.47;;;2.41;100.00
141;BME280;65;48.778;9.160;2024-01-30T07:53:50;99925.78;;;2.56;100.00
141;BME280;65;48.778;9.160;2024-01-30T07:56:36;99923.13;;;2.65;100.00
141;BME280;65;48.778;9.160;2024-01-30T07:59:22;99930.91;;;2.78;100.00
141;BME280;65;48.778;9.160;2024-01-30T08:02:12;99924.78;;;2.89;100.00
141;BME280;65;48.778;9.160;2024-01-30T08:04:57;99929.09;;;3.02;100.00
141;BME280;65;48.778;9.160;2024-01-30T08:07:43;99929.00;;;3.22;100.00
141;BME280;65;48.778;9.160;2024-01-30T08:10:29;99928.91;;;3.37;100.00
141;BME280;65;48.778;9.160;2024-01-30T08:13:15;99930.56;;;3.52;100.00
141;BME280;65;48.778;9.160;2024-01-30T08:16:01;99929.59;;;3.66;100.00
141;BME280;65;48.778;9.160;2024-01-30T08:18:46;99925.13;;;3.77;100.00
141;BME280;65;48.778;9.160;2024-01-30T08:21:32;99922.38;;;3.96;100.00
141;BME280;65;48.778;9.160;2024-01-30T08:24:21;99919.53;;;4.20;100.00
141;BME280;65;48.778;9.160;2024-01-30T08:27:09;99922.81;;;4.42;100.00
141;BME280;65;48.778;9.160;2024-01-30T08:29:55;99922.63;;;4.59;100.00
141;BME280;65;48.778;9.160;2024-01-30T08:32:41;99924.16;;;4.80;100.00
141;BME280;65;48.778;9.160;2024-01-30T08:35:27;99924.06;;;4.86;100.00
141;BME280;65;48.778;9.160;2024-01-30T08:38:13;99923.09;;;4.94;100.00
141;BME280;65;48.778;9.160;2024-01-30T08:40:58;99915.97;;;5.04;100.00
141;BME280;65;48.778;9.160;2024-01-30T08:43:44;99928.94;;;5.13;100.00
141;BME280;65;48.778;9.160;2024-01-30T08:46:30;99920.91;;;5.28;100.00
141;BME280;65;48.778;9.160;2024-01-30T08:49:16;99928.69;;;5.34;100.00
141;BME280;65;48.778;9.160;2024-01-30T08:52:02;99923.41;;;5.37;100.00
141;BME280;65;48.778;9.160;2024-01-30T08:54:48;99929.47;;;5.41;100.00
141;BME280;65;48.778;9.160;2024-01-30T08:57:34;99928.69;;;5.34;100.00
141;BME280;65;48.778;9.160;2024-01-30T09:00:20;99932.09;;;5.39;100.00
141;BME280;65;48.778;9.160;2024-01-30T09:03:06;99929.38;;;5.47;100.00
141;BME280;65;48.778;9.160;2024-01-30T09:05:51;99933.63;;;5.54;100.00
141;BME280;65;48.778;9.160;2024-01-30T09:08:37;99928.28;;;5.62;100.00
141;BME280;65;48.778;9.160;2024-01-30T09:11:24;99937.03;;;5.61;100.00
141;BME280;65;48.778;9.160;2024-01-30T09:14:10;99942.06;;;5.75;100.00
141;BME280;65;48.778;9.160;2024-01-30T09:16:57;99941.00;;;5.88;100.00
141;BME280;65;48.778;9.160;2024-01-30T09:19:43;99945.91;;;6.11;98.73
141;BME280;65;48.778;9.160;2024-01-30T09:22:28;99936.94;;;6.22;95.97
141;BME280;65;48.778;9.160;2024-01-30T09:25:14;99940.31;;;6.29;96.59
141;BME280;65;48.778;9.160;2024-01-30T09:28:00;99946.31;;;6.35;97.38
141;BME280;65;48.778;9.160;2024-01-30T09:30:46;99945.25;;;6.49;97.10
141;BME280;65;48.778;9.160;2024-01-30T09:33:32;99938.22;;;6.49;93.41
141;BME280;65;48.778;9.160;2024-01-30T09:36:18;99948.25;;;6.74;95.66
141;BME280;65;48.778;9.160;2024-01-30T09:39:05;99940.84;;;6.95;91.63
141;BME280;65;48.778;9.160;2024-01-30T09:42:02;99939.59;;;7.13;88.89
141;BME280;65;48.778;9.160;2024-01-30T09:44:51;99943.75;;;7.23;89.07
141;BME280;65;48.778;9.160;2024-01-30T09:47:41;99945.38;;;7.29;86.22
141;BME280;65;48.778;9.160;2024-01-30T09:50:30;99946.94;;;7.38;89.22
141;BME280;65;48.778;9.160;2024-01-30T09:53:16;99944.16;;;7.44;86.73
141;BME280;65;48.778;9.160;2024-01-30T09:56:04;99948.97;;;7.65;84.09
141;BME280;65;48.778;9.160;2024-01-30T09:58:50;99941.75;;;7.73;82.91
141;BME280;65;48.778;9.160;2024-01-30T10:01:36;99949.47;;;7.81;84.98
141;BME280;65;48.778;9.160;2024-01-30T10:04:22;99955.41;;;7.89;82.08
141;BME280;65;48.778;9.160;2024-01-30T10:07:09;99955.19;;;7.98;82.45
141;BME280;65;48.778;9.160;2024-01-30T10:09:56;99950.16;;;8.24;80.48
141;BME280;65;48.778;9.160;2024-01-30T10:12:44;99948.09;;;8.37;77.26
141;BME280;65;48.778;9.160;2024-01-30T10:15:30;99945.09;;;8.51;83.85
141;BME280;65;48.778;9.160;2024-01-30T10:18:16;99945.97;;;8.51;78.13
141;BME280;65;48.778;9.160;2024-01-30T10:21:02;99946.09;;;8.47;77.38
141;BME280;65;48.778;9.160;2024-01-30T10:23:49;99944.63;;;8.69;75.76
141;BME280;65;48.778;9.160;2024-01-30T10:26:38;99947.16;;;8.74;74.94
141;BME280;65;48.778;9.160;2024-01-30T10:29:23;99940.28;;;8.99;77.66
141;BME280;65;48.778;9.160;2024-01-30T10:32:09;99939.19;;;9.06;73.58
141;BME280;65;48.778;9.160;2024-01-30T10:34:55;99933.66;;;8.84;72.92
141;BME280;65;48.778;9.160;2024-01-30T10:37:47;99934.69;;;9.10;75.06
141;BME280;65;48.778;9.160;2024-01-30T10:40:33;99930.56;;;9.31;72.24
141;BME280;65;48.778;9.160;2024-01-30T10:43:21;99921.75;;;9.32;73.45
141;BME280;65;48.778;9.160;2024-01-30T10:46:18;99933.34;;;9.26;71.96
141;BME280;65;48.778;9.160;2024-01-30T10:49:04;99932.47;;;9.26;72.00
141;BME280;65;48.778;9.160;2024-01-30T10:51:52;99921.66;;;9.35;71.69
141;BME280;65;48.778;9.160;2024-01-30T10:54:40;99915.91;;;9.50;69.09
141;BME280;65;48.778;9.160;2024-01-30T10:57:27;99915.41;;;9.65;69.01
141;BME280;65;48.778;9.160;2024-01-30T11:00:14;99909.84;;;9.74;68.42
141;BME280;65;48.778;9.160;2024-01-30T11:03:01;99912.91;;;9.89;68.83
141;BME280;65;48.778;9.160;2024-01-30T11:05:51;99906.31;;;10.02;67.55
141;BME280;65;48.778;9.160;2024-01-30T11:08:37;99899.34;;;9.99;69.56
141;BME280;65;48.778;9.160;2024-01-30T11:11:23;99903.41;;;10.09;67.09
141;BME280;65;48.778;9.160;2024-01-30T11:14:09;99908.09;;;10.01;70.29
141;BME280;65;48.778;9.160;2024-01-30T11:16:58;99910.91;;;10.23;67.12
141;BME280;65;48.778;9.160;2024-01-30T11:19:46;99907.34;;;10.24;68.38
141;BME280;65;48.778;9.160;2024-01-30T11:22:32;99905.25;;;10.34;66.16
141;BME280;65;48.778;9.160;2024-01-30T11:25:19;99910.53;;;10.34;66.18
141;BME280;65;48.778;9.160;2024-01-30T11:28:05;99906.22;;;10.31;67.60
141;BME280;65;48.778;9.160;2024-01-30T11:31:05;99897.06;;;10.41;67.22
141;BME280;65;48.778;9.160;2024-01-30T11:33:52;99904.03;;;10.44;67.52
141;BME280;65;48.778;9.160;2024-01-30T11:36:43;99900.31;;;10.50;65.74
141;BME280;65;48.778;9.160;2024-01-30T11:39:32;99890.94;;;10.41;66.37
141;BME280;65;48.778;9.160;2024-01-30T11:42:17;99893.19;;;10.52;67.62
141;BME280;65;48.778;9.160;2024-01-30T11:45:04;99893.78;;;10.60;66.48
141;BME280;65;48.778;9.160;2024-01-30T11:47:50;99896.66;;;10.77;64.27
141;BME280;65;48.778;9.160;2024-01-30T11:50:37;99888.63;;;10.80;65.89
141;BME280;65;48.778;9.160;2024-01-30T11:53:23;99884.69;;;10.90;66.48
141;BME280;65;48.778;9.160;2024-01-30T11:56:12;99886.63;;;11.10;64.43
141;BME280;65;48.778;9.160;2024-01-30T11:58:58;99887.13;;;11.20;62.40
141;BME280;65;48.778;9.160;2024-01-30T12:01:45;99874.63;;;11.23;63.21
141;BME280;65;48.778;9.160;2024-01-30T12:04:31;99869.72;;;11.14;63.74
141;BME280;65;48.778;9.160;2024-01-30T12:07:17;99874.03;;;11.17;70.34
141;BME280;65;48.778;9.160;2024-01-30T12:10:03;99873.66;;;11.26;64.21
141;BME280;65;48.778;9.160;2024-01-30T12:12:51;99861.47;;;11.22;64.73
141;BME280;65;48.778;9.160;2024-01-30T12:15:38;99856.63;;;11.33;63.78
141;BME280;65;48.778;9.160;2024-01-30T12:18:23;99861.47;;;11.44;64.58
141;BME280;65;48.778;9.160;2024-01-30T12:21:09;99860.91;;;11.35;64.40
141;BME280;65;48.778;9.160;2024-01-30T12:23:56;99856.75;;;11.52;67.15
141;BME280;65;48.778;9.160;2024-01-30T12:26:43;99847.28;;;11.68;62.02
141;BME280;65;48.778;9.160;2024-01-30T12:29:32;99838.41;;;11.69;63.23
141;BME280;65;48.778;9.160;2024-01-30T12:32:18;99842.97;;;11.65;62.70
141;BME280;65;48.778;9.160;2024-01-30T12:35:07;99838.34;;;11.70;61.81
141;BME280;65;48.778;9.160;2024-01-30T12:37:53;99844.16;;;11.80;62.17
141;BME280;65;48.778;9.160;2024-01-30T12:40:39;99840.00;;;11.73;63.80
141;BME280;65;48.778;9.160;2024-01-30T12:43:25;99837.59;;;11.89;61.94
141;BME280;65;48.778;9.160;2024-01-30T12:46:11;99843.84;;;12.08;61.24
141;BME280;65;48.778;9.160;2024-01-30T12:48:56;99843.03;;;12.06;59.69
141;BME280;65;48.778;9.160;2024-01-30T12:51:42;99842.91;;;12.09;58.99
141;BME280;65;48.778;9.160;2024-01-30T12:54:28;99849.44;;;12.22;58.79
141;BME280;65;48.778;9.160;2024-01-30T12:57:14;99841.81;;;12.15;59.67
141;BME280;65;48.778;9.160;2024-01-30T13:00:00;99846.38;;;12.31;59.51
141;BME280;65;48.778;9.160;2024-01-30T13:02:47;99843.66;;;12.33;60.18
141;BME280;65;48.778;9.160;2024-01-30T13:05:33;99843.47;;;12.17;60.88
141;BME280;65;48.778;9.160;2024-01-30T13:08:18;99845.59;;;12.29;60.08
141;BME280;65;48.778;9.160;2024-01-30T13:11:04;99845.16;;;11.98;59.01
141;BME280;65;48.778;9.160;2024-01-30T13:13:50;99850.75;;;12.32;59.79
141;BME280;65;48.778;9.160;2024-01-30T13:16:36;99850.06;;;12.48;59.79
141;BME280;65;48.778;9.160;2024-01-30T13:19:21;99850.34;;;12.42;59.48
141;BME280;65;48.778;9.160;2024-01-30T13:22:07;99849.88;;;12.32;59.29
141;BME280;65;48.778;9.160;2024-01-30T13:24:53;99843.44;;;12.38;58.48
141;BME280;65;48.778;9.160;2024-01-30T13:27:39;99837.44;;;12.34;59.36
141;BME280;65;48.778;9.160;2024-01-30T13:30:24;99844.84;;;12.26;59.61
141;BME280;65;48.778;9.160;2024-01-30T13:33:10;99845.56;;;12.09;60.40
141;BME280;65;48.778;9.160;2024-01-30T13:35:56;99836.16;;;12.02;60.73
141;BME280;65;48.778;9.160;2024-01-30T13:38:42;99843.44;;;11.97;60.08
141;BME280;65;48.778;9.160;2024-01-30T13:41:28;99843.22;;;11.81;60.31
141;BME280;65;48.778;9.160;2024-01-30T13:44:15;99843.44;;;11.97;60.34
141;BME280;65;48.778;9.160;2024-01-30T13:47:02;99840.44;;;12.04;61.36
141;BME280;65;48.778;9.160;2024-01-30T14:33:17;99844.97;;;11.37;62.76
141;BME280;65;48.778;9.160;2024-01-30T14:36:03;99840.97;;;11.27;70.01
141;BME280;65;48.778;9.160;2024-01-30T14:38:48;99841.34;;;11.18;66.92
141;BME280;65;48.778;9.160;2024-01-30T14:41:34;99856.59;;;11.11;68.04
141;BME280;65;48.778;9.160;2024-01-30T14:44:20;99859.81;;;11.19;65.24
141;BME280;65;48.778;9.160;2024-01-30T14:47:11;99861.50;;;10.98;70.38
141;BME280;65;48.778;9.160;2024-01-30T14:49:58;99860.16;;;10.87;67.56
141;BME280;65;48.778;9.160;2024-01-30T14:52:44;99863.16;;;10.77;69.00
141;BME280;65;48.778;9.160;2024-01-30T14:55:30;99869.53;;;10.72;69.09
141;BME280;65;48.778;9.160;2024-01-30T14:58:16;99876.88;;;10.64;70.39
141;BME280;65;48.778;9.160;2024-01-30T15:01:01;99877.22;;;10.55;71.50
141;BME280;65;48.778;9.160;2024-01-30T15:03:47;99881.22;;;10.41;72.07
141;BME280;65;48.778;9.160;2024-01-30T15:06:33;99885.28;;;10.25;75.16
141;BME280;65;48.778;9.160;2024-01-30T15:09:19;99886.50;;;10.15;73.00
141;BME280;65;48.778;9.160;2024-01-30T15:12:40;99884.97;;;10.08;73.88
141;BME280;65;48.778;9.160;2024-01-30T15:15:26;99888.84;;;9.98;74.36
141;BME280;65;48.778;9.160;2024-01-30T15:18:13;99884.03;;;9.84;80.08
141;BME280;65;48.778;9.160;2024-01-30T15:20:59;99883.44;;;9.74;77.36
141;BME280;65;48.778;9.160;2024-01-30T15:23:45;99890.63;;;9.69;77.34
141;BME280;65;48.778;9.160;2024-01-30T15:26:31;99890.78;;;9.65;78.84
141;BME280;65;48.778;9.160;2024-01-30T15:32:59;99912.34;;;9.51;77.46
141;BME280;65;48.778;9.160;2024-01-30T15:35:44;99911.63;;;9.46;78.15
141;BME280;65;48.778;9.160;2024-01-30T15:38:30;99916.19;;;9.41;80.70
141;BME280;65;48.778;9.160;2024-01-30T15:41:17;99921.88;;;9.27;80.63
141;BME280;65;48.778;9.160;2024-01-30T15:44:03;99919.50;;;9.18;80.79
141;BME280;65;48.778;9.160;2024-01-30T15:46:48;99931.00;;;9.15;83.35
141;BME280;65;48.778;9.160;2024-01-30T15:49:34;99922.53;;;9.04;82.83
141;BME280;65;48.778;9.160;2024-01-30T15:52:20;99931.59;;;8.96;83.44
141;BME280;65;48.778;9.160;2024-01-30T15:55:06;99931.03;;;8.84;85.19
141;BME280;65;48.778;9.160;2024-01-30T15:57:51;99934.78;;;8.76;87.29
141;BME280;65;48.778;9.160;2024-01-30T16:00:37;99936.72;;;8.69;87.65
141;BME280;65;48.778;9.160;2024-01-30T16:03:23;99941.22;;;8.64;90.02
141;BME280;65;48.778;9.160;2024-01-30T16:06:09;99935.38;;;8.53;89.67
141;BME280;65;48.778;9.160;2024-01-30T16:08:55;99943.47;;;8.47;92.37
141;BME280;65;48.778;9.160;2024-01-30T16:11:40;99948.94;;;8.39;92.42
141;BME280;65;48.778;9.160;2024-01-30T16:14:26;99952.63;;;8.31;93.19
141;BME280;65;48.778;9.160;2024-01-30T16:17:12;99956.38;;;8.22;94.63
141;BME280;65;48.778;9.160;2024-01-30T16:19:58;99953.00;;;8.17;97.30
141;BME280;65;48.778;9.160;2024-01-30T16:22:43;99954.94;;;8.09;96.90
141;BME280;65;48.778;9.160;2024-01-30T16:25:29;99949.72;;;8.06;100.00
141;BME280;65;48.778;9.160;2024-01-30T16:28:15;99950.78;;;7.99;100.00
141;BME280;65;48.778;9.160;2024-01-30T16:31:01;99957.06;;;7.93;100.00
141;BME280;65;48.778;9.160;2024-01-30T16:33:47;99963.38;;;7.86;100.00
141;BME280;65;48.778;9.160;2024-01-30T16:36:33;99956.41;;;7.85;100.00